sensor_id;sensor_type;location;lat;lon;timestamp;P1;durP1;ratioP1;P2;durP2;ratioP2
3095;SDS011;1558;42.700;23.360;2023-04-29T00:00:35;10.10;;;7.63;;
3095;SDS011;1558;42.700;23.360;2023-04-29T00:03:03;11.10;;;7.80;;
3095;SDS011;1558;42.700;23.360;2023-04-29T00:05:31;8.37;;;6.93;;
3095;SDS011;1558;42.700;23.360;2023-04-29T00:08:01;9.90;;;7.80;;
3095;SDS011;1558;42.700;23.360;2023-04-29T00:10:30;12.37;;;9.27;;
3095;SDS011;1558;42.700;23.360;2023-04-29T00:12:58;11.73;;;10.50;;
3095;SDS011;1558;42.700;23.360;2023-04-29T00:15:26;11.83;;;9.03;;
3095;SDS011;1558;42.700;23.360;2023-04-29T00:17:54;14.70;;;10.67;;
3095;SDS011;1558;42.700;23.360;2023-04-29T00:20:23;16.57;;;10.77;;
3095;SDS011;1558;42.700;23.360;2023-04-29T00:22:51;11.93;;;9.83;;
3095;SDS011;1558;42.700;23.360;2023-04-29T00:25:20;11.13;;;9.80;;
3095;SDS011;1558;42.700;23.360;2023-04-29T00:27:48;12.77;;;10.50;;
3095;SDS011;1558;42.700;23.360;2023-04-29T00:30:16;15.80;;;10.10;;
3095;SDS011;1558;42.700;23.360;2023-04-29T00:32:45;11.50;;;9.20;;
3095;SDS011;1558;42.700;23.360;2023-04-29T00:35:13;14.57;;;10.67;;
3095;SDS011;1558;42.700;23.360;2023-04-29T00:37:41;12.13;;;10.50;;
3095;SDS011;1558;42.700;23.360;2023-04-29T00:40:10;17.87;;;11.00;;
3095;SDS011;1558;42.700;23.360;2023-04-29T00:42:42;12.70;;;10.13;;
3095;SDS011;1558;42.700;23.360;2023-04-29T00:45:10;19.07;;;10.80;;
3095;SDS011;1558;42.700;23.360;2023-04-29T00:47:38;14.77;;;10.77;;
3095;SDS011;1558;42.700;23.360;2023-04-29T00:50:07;12.47;;;10.77;;
3095;SDS011;1558;42.700;23.360;2023-04-29T00:52:36;15.10;;;10.37;;
3095;SDS011;1558;42.700;23.360;2023-04-29T00:55:05;13.90;;;10.57;;
3095;SDS011;1558;42.700;23.360;2023-04-29T00:57:35;11.70;;;10.00;;
3095;SDS011;1558;42.700;23.360;2023-04-29T01:00:06;13.23;;;10.90;;
3095;SDS011;1558;42.700;23.360;2023-04-29T01:02:36;17.90;;;11.80;;
3095;SDS011;1558;42.700;23.360;2023-04-29T01:05:05;17.40;;;10.97;;
3095;SDS011;1558;42.700;23.360;2023-04-29T01:07:33;15.00;;;11.57;;
3095;SDS011;1558;42.700;23.360;2023-04-29T01:10:09;16.97;;;11.63;;
3095;SDS011;1558;42.700;23.360;2023-04-29T01:12:44;13.60;;;11.07;;
3095;SDS011;1558;42.700;23.360;2023-04-29T01:15:21;14.73;;;11.97;;
3095;SDS011;1558;42.700;23.360;2023-04-29T01:17:52;17.47;;;11.73;;
3095;SDS011;1558;42.700;23.360;2023-04-29T01:20:26;14.47;;;11.17;;
3095;SDS011;1558;42.700;23.360;2023-04-29T01:22:55;14.63;;;10.97;;
3095;SDS011;1558;42.700;23.360;2023-04-29T01:25:25;14.17;;;10.80;;
3095;SDS011;1558;42.700;23.360;2023-04-29T01:27:56;12.53;;;9.73;;
3095;SDS011;1558;42.700;23.360;2023-04-29T01:30:30;13.90;;;10.57;;
3095;SDS011;1558;42.700;23.360;2023-04-29T01:33:08;13.63;;;9.27;;
3095;SDS011;1558;42.700;23.360;2023-04-29T01:35:43;10.93;;;9.30;;
3095;SDS011;1558;42.700;23.360;2023-04-29T01:38:25;14.83;;;9.30;;
3095;SDS011;1558;42.700;23.360;2023-04-29T01:41:05;13.20;;;9.27;;
3095;SDS011;1558;42.700;23.360;2023-04-29T01:43:37;15.40;;;8.83;;
3095;SDS011;1558;42.700;23.360;2023-04-29T01:46:08;12.80;;;9.20;;
3095;SDS011;1558;42.700;23.360;2023-04-29T01:48:37;12.57;;;8.83;;
3095;SDS011;1558;42.700;23.360;2023-04-29T01:51:06;11.57;;;8.73;;
3095;SDS011;1558;42.700;23.360;2023-04-29T01:53:34;11.47;;;8.80;;
3095;SDS011;1558;42.700;23.360;2023-04-29T01:56:04;12.43;;;9.13;;
3095;SDS011;1558;42.700;23.360;2023-04-29T01:58:33;8.43;;;7.17;;
3095;SDS011;1558;42.700;23.360;2023-04-29T02:01:01;10.73;;;7.33;;
3095;SDS011;1558;42.700;23.360;2023-04-29T02:03:29;7.70;;;7.00;;
3095;SDS011;1558;42.700;23.360;2023-04-29T02:05:57;8.13;;;7.10;;
3095;SDS011;1558;42.700;23.360;2023-04-29T02:08:25;9.10;;;7.50;;
3095;SDS011;1558;42.700;23.360;2023-04-29T02:10:54;9.00;;;7.20;;
3095;SDS011;1558;42.700;23.360;2023-04-29T02:13:24;7.37;;;6.60;;
3095;SDS011;1558;42.700;23.360;2023-04-29T02:15:52;7.20;;;6.53;;
3095;SDS011;1558;42.700;23.360;2023-04-29T02:18:20;11.37;;;6.90;;
3095;SDS011;1558;42.700;23.360;2023-04-29T02:20:48;10.90;;;7.03;;
3095;SDS011;1558;42.700;23.360;2023-04-29T02:23:17;8.53;;;7.20;;
3095;SDS011;1558;42.700;23.360;2023-04-29T02:25:45;7.83;;;7.00;;
3095;SDS011;1558;42.700;23.360;2023-04-29T02:28:13;7.70;;;6.57;;
3095;SDS011;1558;42.700;23.360;2023-04-29T02:30:42;10.47;;;7.67;;
3095;SDS011;1558;42.700;23.360;2023-04-29T02:33:11;8.23;;;7.50;;
3095;SDS011;1558;42.700;23.360;2023-04-29T02:35:39;10.07;;;7.87;;
3095;SDS011;1558;42.700;23.360;2023-04-29T02:38:07;9.27;;;7.03;;
3095;SDS011;1558;42.700;23.360;2023-04-29T02:40:39;9.53;;;7.00;;
3095;SDS011;1558;42.700;23.360;2023-04-29T02:43:08;8.70;;;7.13;;
3095;SDS011;1558;42.700;23.360;2023-04-29T02:45:36;7.60;;;6.90;;
3095;SDS011;1558;42.700;23.360;2023-04-29T02:48:06;8.23;;;6.70;;
3095;SDS011;1558;42.700;23.360;2023-04-29T02:50:34;9.10;;;7.30;;
3095;SDS011;1558;42.700;23.360;2023-04-29T02:53:05;9.10;;;7.40;;
3095;SDS011;1558;42.700;23.360;2023-04-29T02:55:33;10.30;;;7.23;;
3095;SDS011;1558;42.700;23.360;2023-04-29T02:58:01;8.17;;;6.97;;
3095;SDS011;1558;42.700;23.360;2023-04-29T03:00:29;7.67;;;6.87;;
3095;SDS011;1558;42.700;23.360;2023-04-29T03:02:57;7.53;;;6.50;;
3095;SDS011;1558;42.700;23.360;2023-04-29T03:05:27;9.13;;;7.03;;
3095;SDS011;1558;42.700;23.360;2023-04-29T03:07:55;8.20;;;7.10;;
3095;SDS011;1558;42.700;23.360;2023-04-29T03:10:23;8.17;;;7.17;;
3095;SDS011;1558;42.700;23.360;2023-04-29T03:12:51;9.60;;;7.17;;
3095;SDS011;1558;42.700;23.360;2023-04-29T03:15:19;10.67;;;7.33;;
3095;SDS011;1558;42.700;23.360;2023-04-29T03:17:47;9.77;;;7.17;;
3095;SDS011;1558;42.700;23.360;2023-04-29T03:20:15;9.37;;;6.90;;
3095;SDS011;1558;42.700;23.360;2023-04-29T03:22:45;7.83;;;6.97;;
3095;SDS011;1558;42.700;23.360;2023-04-29T03:25:13;10.37;;;7.50;;
3095;SDS011;1558;42.700;23.360;2023-04-29T03:27:41;7.53;;;6.30;;
3095;SDS011;1558;42.700;23.360;2023-04-29T03:30:09;8.70;;;7.30;;
3095;SDS011;1558;42.700;23.360;2023-04-29T03:32:37;8.43;;;6.80;;
3095;SDS011;1558;42.700;23.360;2023-04-29T03:35:06;9.83;;;7.40;;
3095;SDS011;1558;42.700;23.360;2023-04-29T03:37:34;9.10;;;7.13;;
3095;SDS011;1558;42.700;23.360;2023-04-29T03:40:04;11.03;;;7.30;;
3095;SDS011;1558;42.700;23.360;2023-04-29T03:42:33;9.83;;;8.00;;
3095;SDS011;1558;42.700;23.360;2023-04-29T03:45:02;10.37;;;7.47;;
3095;SDS011;1558;42.700;23.360;2023-04-29T03:47:30;11.90;;;8.23;;
3095;SDS011;1558;42.700;23.360;2023-04-29T03:49:58;10.87;;;8.20;;
3095;SDS011;1558;42.700;23.360;2023-04-29T03:52:26;8.93;;;8.03;;
3095;SDS011;1558;42.700;23.360;2023-04-29T03:54:54;11.20;;;8.43;;
3095;SDS011;1558;42.700;23.360;2023-04-29T03:57:24;8.20;;;7.20;;
3095;SDS011;1558;42.700;23.360;2023-04-29T03:59:52;13.63;;;7.00;;
3095;SDS011;1558;42.700;23.360;2023-04-29T04:02:20;10.70;;;7.33;;
3095;SDS011;1558;42.700;23.360;2023-04-29T04:04:48;10.40;;;7.00;;
3095;SDS011;1558;42.700;23.360;2023-04-29T04:07:17;11.57;;;6.97;;
3095;SDS011;1558;42.700;23.360;2023-04-29T04:09:45;11.43;;;7.33;;
3095;SDS011;1558;42.700;23.360;2023-04-29T04:12:13;10.07;;;7.73;;
3095;SDS011;1558;42.700;23.360;2023-04-29T04:14:42;9.40;;;7.23;;
3095;SDS011;1558;42.700;23.360;2023-04-29T04:17:10;10.07;;;7.80;;
3095;SDS011;1558;42.700;23.360;2023-04-29T04:19:38;12.67;;;7.57;;
3095;SDS011;1558;42.700;23.360;2023-04-29T04:22:06;12.27;;;8.60;;
3095;SDS011;1558;42.700;23.360;2023-04-29T04:24:35;9.77;;;8.40;;
3095;SDS011;1558;42.700;23.360;2023-04-29T04:27:04;17.17;;;8.67;;
3095;SDS011;1558;42.700;23.360;2023-04-29T04:29:32;14.83;;;8.80;;
3095;SDS011;1558;42.700;23.360;2023-04-29T04:32:02;12.13;;;8.10;;
3095;SDS011;1558;42.700;23.360;2023-04-29T04:34:30;12.80;;;8.40;;
3095;SDS011;1558;42.700;23.360;2023-04-29T04:36:58;8.63;;;7.73;;
3095;SDS011;1558;42.700;23.360;2023-04-29T04:39:27;7.57;;;6.80;;
3095;SDS011;1558;42.700;23.360;2023-04-29T04:41:55;9.90;;;7.70;;
3095;SDS011;1558;42.700;23.360;2023-04-29T04:44:23;11.47;;;8.87;;
3095;SDS011;1558;42.700;23.360;2023-04-29T04:46:51;13.00;;;9.27;;
3095;SDS011;1558;42.700;23.360;2023-04-29T04:49:21;14.67;;;9.00;;
3095;SDS011;1558;42.700;23.360;2023-04-29T04:51:50;10.77;;;8.50;;
3095;SDS011;1558;42.700;23.360;2023-04-29T04:54:18;13.97;;;9.80;;
3095;SDS011;1558;42.700;23.360;2023-04-29T04:56:46;14.47;;;9.10;;
3095;SDS011;1558;42.700;23.360;2023-04-29T04:59:17;14.40;;;8.20;;
3095;SDS011;1558;42.700;23.360;2023-04-29T05:01:46;12.93;;;8.17;;
3095;SDS011;1558;42.700;23.360;2023-04-29T05:04:14;11.60;;;8.03;;
3095;SDS011;1558;42.700;23.360;2023-04-29T05:06:45;12.53;;;8.13;;
3095;SDS011;1558;42.700;23.360;2023-04-29T05:09:13;8.70;;;7.63;;
3095;SDS011;1558;42.700;23.360;2023-04-29T05:11:41;9.97;;;8.67;;
3095;SDS011;1558;42.700;23.360;2023-04-29T05:14:09;11.77;;;8.80;;
3095;SDS011;1558;42.700;23.360;2023-04-29T05:16:37;10.43;;;8.77;;
3095;SDS011;1558;42.700;23.360;2023-04-29T05:19:06;11.33;;;8.73;;
3095;SDS011;1558;42.700;23.360;2023-04-29T05:21:35;13.07;;;8.83;;
3095;SDS011;1558;42.700;23.360;2023-04-29T05:24:05;16.07;;;9.13;;
3095;SDS011;1558;42.700;23.360;2023-04-29T05:26:33;16.97;;;9.07;;
3095;SDS011;1558;42.700;23.360;2023-04-29T05:29:02;13.67;;;8.90;;
3095;SDS011;1558;42.700;23.360;2023-04-29T05:31:30;10.90;;;9.23;;
3095;SDS011;1558;42.700;23.360;2023-04-29T05:33:58;13.10;;;9.30;;
3095;SDS011;1558;42.700;23.360;2023-04-29T05:36:26;12.23;;;9.60;;
3095;SDS011;1558;42.700;23.360;2023-04-29T05:38:55;14.30;;;10.13;;
3095;SDS011;1558;42.700;23.360;2023-04-29T05:41:24;15.70;;;9.40;;
3095;SDS011;1558;42.700;23.360;2023-04-29T05:43:52;14.67;;;9.90;;
3095;SDS011;1558;42.700;23.360;2023-04-29T05:46:21;14.33;;;9.87;;
3095;SDS011;1558;42.700;23.360;2023-04-29T05:48:49;13.27;;;9.10;;
3095;SDS011;1558;42.700;23.360;2023-04-29T05:51:17;11.90;;;9.63;;
3095;SDS011;1558;42.700;23.360;2023-04-29T05:53:46;11.90;;;8.93;;
3095;SDS011;1558;42.700;23.360;2023-04-29T05:56:14;11.63;;;8.77;;
3095;SDS011;1558;42.700;23.360;2023-04-29T05:58:44;9.50;;;8.43;;
3095;SDS011;1558;42.700;23.360;2023-04-29T06:01:12;9.33;;;8.23;;
3095;SDS011;1558;42.700;23.360;2023-04-29T06:03:42;14.20;;;9.63;;
3095;SDS011;1558;42.700;23.360;2023-04-29T06:06:11;13.03;;;8.47;;
3095;SDS011;1558;42.700;23.360;2023-04-29T06:08:39;9.37;;;7.87;;
3095;SDS011;1558;42.700;23.360;2023-04-29T06:11:08;10.80;;;8.07;;
3095;SDS011;1558;42.700;23.360;2023-04-29T06:13:36;11.43;;;8.00;;
3095;SDS011;1558;42.700;23.360;2023-04-29T06:16:06;12.43;;;8.57;;
3095;SDS011;1558;42.700;23.360;2023-04-29T06:18:34;8.70;;;7.80;;
3095;SDS011;1558;42.700;23.360;2023-04-29T06:21:03;15.53;;;9.60;;
3095;SDS011;1558;42.700;23.360;2023-04-29T06:23:32;10.68;;;7.78;;
3095;SDS011;1558;42.700;23.360;2023-04-29T06:26:00;16.23;;;9.52;;
3095;SDS011;1558;42.700;23.360;2023-04-29T06:28:29;9.90;;;7.55;;
3095;SDS011;1558;42.700;23.360;2023-04-29T06:30:57;12.68;;;8.57;;
3095;SDS011;1558;42.700;23.360;2023-04-29T06:33:27;10.43;;;7.63;;
3095;SDS011;1558;42.700;23.360;2023-04-29T06:35:56;8.80;;;7.90;;
3095;SDS011;1558;42.700;23.360;2023-04-29T06:38:24;10.35;;;9.18;;
3095;SDS011;1558;42.700;23.360;2023-04-29T06:40:53;11.45;;;8.73;;
3095;SDS011;1558;42.700;23.360;2023-04-29T06:43:23;9.50;;;8.50;;
3095;SDS011;1558;42.700;23.360;2023-04-29T06:45:52;9.82;;;8.27;;
3095;SDS011;1558;42.700;23.360;2023-04-29T06:48:20;9.10;;;8.20;;
3095;SDS011;1558;42.700;23.360;2023-04-29T06:50:50;10.05;;;7.90;;
3095;SDS011;1558;42.700;23.360;2023-04-29T06:53:19;8.48;;;7.60;;
3095;SDS011;1558;42.700;23.360;2023-04-29T06:55:48;9.75;;;8.18;;
3095;SDS011;1558;42.700;23.360;2023-04-29T06:58:17;9.18;;;7.90;;
3095;SDS011;1558;42.700;23.360;2023-04-29T07:00:46;10.32;;;8.38;;
3095;SDS011;1558;42.700;23.360;2023-04-29T07:03:15;13.88;;;9.10;;
3095;SDS011;1558;42.700;23.360;2023-04-29T07:05:45;10.70;;;7.68;;
3095;SDS011;1558;42.700;23.360;2023-04-29T07:08:15;8.95;;;8.15;;
3095;SDS011;1558;42.700;23.360;2023-04-29T07:10:43;11.63;;;7.78;;
3095;SDS011;1558;42.700;23.360;2023-04-29T07:13:12;9.05;;;8.15;;
3095;SDS011;1558;42.700;23.360;2023-04-29T07:15:40;8.10;;;6.60;;
3095;SDS011;1558;42.700;23.360;2023-04-29T07:18:09;8.27;;;6.55;;
3095;SDS011;1558;42.700;23.360;2023-04-29T07:20:37;7.57;;;6.87;;
3095;SDS011;1558;42.700;23.360;2023-04-29T07:23:05;8.60;;;6.83;;
3095;SDS011;1558;42.700;23.360;2023-04-29T07:25:34;7.30;;;6.47;;
3095;SDS011;1558;42.700;23.360;2023-04-29T07:28:03;10.00;;;7.03;;
3095;SDS011;1558;42.700;23.360;2023-04-29T07:30:31;11.95;;;7.53;;
3095;SDS011;1558;42.700;23.360;2023-04-29T07:32:59;11.88;;;7.38;;
3095;SDS011;1558;42.700;23.360;2023-04-29T07:35:28;10.85;;;7.18;;
3095;SDS011;1558;42.700;23.360;2023-04-29T07:37:56;8.68;;;7.28;;
3095;SDS011;1558;42.700;23.360;2023-04-29T07:40:24;9.80;;;7.40;;
3095;SDS011;1558;42.700;23.360;2023-04-29T07:42:54;12.65;;;8.02;;
3095;SDS011;1558;42.700;23.360;2023-04-29T07:45:22;11.30;;;7.75;;
3095;SDS011;1558;42.700;23.360;2023-04-29T07:47:50;9.68;;;7.35;;
3095;SDS011;1558;42.700;23.360;2023-04-29T07:50:18;8.52;;;7.63;;
3095;SDS011;1558;42.700;23.360;2023-04-29T07:52:46;8.70;;;7.80;;
3095;SDS011;1558;42.700;23.360;2023-04-29T07:55:14;8.07;;;7.28;;
3095;SDS011;1558;42.700;23.360;2023-04-29T07:57:43;11.43;;;7.32;;
3095;SDS011;1558;42.700;23.360;2023-04-29T08:00:13;11.05;;;7.60;;
3095;SDS011;1558;42.700;23.360;2023-04-29T08:02:41;8.35;;;7.55;;
3095;SDS011;1558;42.700;23.360;2023-04-29T08:05:10;12.50;;;8.18;;
3095;SDS011;1558;42.700;23.360;2023-04-29T08:07:39;8.32;;;7.47;;
3095;SDS011;1558;42.700;23.360;2023-04-29T08:10:07;7.93;;;6.05;;
3095;SDS011;1558;42.700;23.360;2023-04-29T08:12:36;8.07;;;7.22;;
3095;SDS011;1558;42.700;23.360;2023-04-29T08:15:04;9.93;;;7.60;;
3095;SDS011;1558;42.700;23.360;2023-04-29T08:17:36;8.30;;;7.50;;
3095;SDS011;1558;42.700;23.360;2023-04-29T08:20:05;13.95;;;8.35;;
3095;SDS011;1558;42.700;23.360;2023-04-29T08:22:34;8.70;;;7.38;;
3095;SDS011;1558;42.700;23.360;2023-04-29T08:25:03;7.40;;;6.53;;
3095;SDS011;1558;42.700;23.360;2023-04-29T08:27:31;9.70;;;6.47;;
3095;SDS011;1558;42.700;23.360;2023-04-29T08:29:59;7.30;;;6.60;;
3095;SDS011;1558;42.700;23.360;2023-04-29T08:32:27;8.30;;;7.50;;
3095;SDS011;1558;42.700;23.360;2023-04-29T08:34:57;11.88;;;6.50;;
3095;SDS011;1558;42.700;23.360;2023-04-29T08:37:25;6.50;;;5.75;;
3095;SDS011;1558;42.700;23.360;2023-04-29T08:39:56;7.70;;;6.30;;
3095;SDS011;1558;42.700;23.360;2023-04-29T08:42:29;8.57;;;6.05;;
3095;SDS011;1558;42.700;23.360;2023-04-29T08:45:00;10.55;;;9.52;;
3095;SDS011;1558;42.700;23.360;2023-04-29T08:47:29;8.13;;;7.22;;
3095;SDS011;1558;42.700;23.360;2023-04-29T08:50:01;7.22;;;5.97;;
3095;SDS011;1558;42.700;23.360;2023-04-29T08:52:31;9.55;;;6.72;;
3095;SDS011;1558;42.700;23.360;2023-04-29T08:54:59;6.88;;;5.22;;
3095;SDS011;1558;42.700;23.360;2023-04-29T08:57:29;7.18;;;6.00;;
3095;SDS011;1558;42.700;23.360;2023-04-29T09:00:05;5.55;;;4.97;;
3095;SDS011;1558;42.700;23.360;2023-04-29T09:02:37;6.75;;;5.47;;
3095;SDS011;1558;42.700;23.360;2023-04-29T09:05:13;10.23;;;5.88;;
3095;SDS011;1558;42.700;23.360;2023-04-29T09:07:41;7.03;;;5.68;;
3095;SDS011;1558;42.700;23.360;2023-04-29T09:10:10;6.25;;;5.50;;
3095;SDS011;1558;42.700;23.360;2023-04-29T09:12:40;6.25;;;5.20;;
3095;SDS011;1558;42.700;23.360;2023-04-29T09:15:09;6.32;;;5.65;;
3095;SDS011;1558;42.700;23.360;2023-04-29T09:17:54;8.63;;;5.88;;
3095;SDS011;1558;42.700;23.360;2023-04-29T09:20:27;11.07;;;5.97;;
3095;SDS011;1558;42.700;23.360;2023-04-29T09:22:57;7.03;;;5.00;;
3095;SDS011;1558;42.700;23.360;2023-04-29T09:25:26;7.68;;;5.40;;
3095;SDS011;1558;42.700;23.360;2023-04-29T09:27:55;5.90;;;5.00;;
3095;SDS011;1558;42.700;23.360;2023-04-29T09:30:23;7.80;;;5.85;;
3095;SDS011;1558;42.700;23.360;2023-04-29T09:33:05;6.95;;;5.80;;
3095;SDS011;1558;42.700;23.360;2023-04-29T09:35:38;8.38;;;5.90;;
3095;SDS011;1558;42.700;23.360;2023-04-29T09:38:08;7.40;;;5.25;;
3095;SDS011;1558;42.700;23.360;2023-04-29T09:40:39;7.13;;;5.90;;
3095;SDS011;1558;42.700;23.360;2023-04-29T09:43:23;8.18;;;5.75;;
3095;SDS011;1558;42.700;23.360;2023-04-29T09:45:52;8.70;;;5.65;;
3095;SDS011;1558;42.700;23.360;2023-04-29T09:48:21;15.93;;;5.90;;
3095;SDS011;1558;42.700;23.360;2023-04-29T09:51:00;6.38;;;5.32;;
3095;SDS011;1558;42.700;23.360;2023-04-29T09:53:30;7.85;;;5.47;;
3095;SDS011;1558;42.700;23.360;2023-04-29T09:55:58;9.70;;;6.13;;
3095;SDS011;1558;42.700;23.360;2023-04-29T09:58:29;7.32;;;5.60;;
3095;SDS011;1558;42.700;23.360;2023-04-29T10:01:04;10.77;;;6.40;;
3095;SDS011;1558;42.700;23.360;2023-04-29T10:03:35;8.35;;;5.95;;
3095;SDS011;1558;42.700;23.360;2023-04-29T10:06:06;9.07;;;5.90;;
3095;SDS011;1558;42.700;23.360;2023-04-29T10:08:35;14.10;;;6.97;;
3095;SDS011;1558;42.700;23.360;2023-04-29T10:11:03;7.50;;;6.15;;
3095;SDS011;1558;42.700;23.360;2023-04-29T10:13:33;8.68;;;5.75;;
3095;SDS011;1558;42.700;23.360;2023-04-29T10:16:07;6.78;;;6.00;;
3095;SDS011;1558;42.700;23.360;2023-04-29T10:18:43;6.88;;;6.03;;
3095;SDS011;1558;42.700;23.360;2023-04-29T10:21:21;7.43;;;5.55;;
3095;SDS011;1558;42.700;23.360;2023-04-29T10:23:55;7.25;;;5.88;;
3095;SDS011;1558;42.700;23.360;2023-04-29T10:26:25;10.48;;;5.60;;
3095;SDS011;1558;42.700;23.360;2023-04-29T10:28:55;5.43;;;4.93;;
3095;SDS011;1558;42.700;23.360;2023-04-29T10:31:25;13.77;;;6.18;;
3095;SDS011;1558;42.700;23.360;2023-04-29T10:33:56;8.65;;;6.50;;
3095;SDS011;1558;42.700;23.360;2023-04-29T10:36:26;8.68;;;6.88;;
3095;SDS011;1558;42.700;23.360;2023-04-29T10:38:57;9.25;;;6.90;;
3095;SDS011;1558;42.700;23.360;2023-04-29T10:41:29;8.73;;;5.65;;
3095;SDS011;1558;42.700;23.360;2023-04-29T10:44:00;8.13;;;5.43;;
3095;SDS011;1558;42.700;23.360;2023-04-29T10:46:30;6.72;;;5.00;;
3095;SDS011;1558;42.700;23.360;2023-04-29T10:48:59;4.28;;;3.88;;
3095;SDS011;1558;42.700;23.360;2023-04-29T10:51:31;7.50;;;6.03;;
3095;SDS011;1558;42.700;23.360;2023-04-29T10:54:01;3.47;;;3.08;;
3095;SDS011;1558;42.700;23.360;2023-04-29T10:56:40;5.85;;;3.75;;
3095;SDS011;1558;42.700;23.360;2023-04-29T10:59:10;6.85;;;4.50;;
3095;SDS011;1558;42.700;23.360;2023-04-29T11:01:40;7.88;;;4.57;;
3095;SDS011;1558;42.700;23.360;2023-04-29T11:04:14;6.50;;;4.13;;
3095;SDS011;1558;42.700;23.360;2023-04-29T11:06:44;6.60;;;4.15;;
3095;SDS011;1558;42.700;23.360;2023-04-29T11:09:19;5.60;;;3.40;;
3095;SDS011;1558;42.700;23.360;2023-04-29T11:12:00;4.90;;;4.35;;
3095;SDS011;1558;42.700;23.360;2023-04-29T11:14:31;3.53;;;3.22;;
3095;SDS011;1558;42.700;23.360;2023-04-29T11:17:07;7.72;;;4.10;;
3095;SDS011;1558;42.700;23.360;2023-04-29T11:19:40;5.95;;;3.92;;
3095;SDS011;1558;42.700;23.360;2023-04-29T11:22:12;5.80;;;3.50;;
3095;SDS011;1558;42.700;23.360;2023-04-29T11:24:51;3.00;;;2.75;;
3095;SDS011;1558;42.700;23.360;2023-04-29T11:27:22;4.10;;;3.08;;
3095;SDS011;1558;42.700;23.360;2023-04-29T11:29:52;5.40;;;3.00;;
3095;SDS011;1558;42.700;23.360;2023-04-29T11:32:24;4.30;;;3.00;;
3095;SDS011;1558;42.700;23.360;2023-04-29T11:34:53;7.78;;;3.65;;
3095;SDS011;1558;42.700;23.360;2023-04-29T11:37:23;5.22;;;3.45;;
3095;SDS011;1558;42.700;23.360;2023-04-29T11:39:57;7.93;;;4.07;;
3095;SDS011;1558;42.700;23.360;2023-04-29T11:42:27;6.18;;;3.78;;
3095;SDS011;1558;42.700;23.360;2023-04-29T11:44:55;5.85;;;3.83;;
3095;SDS011;1558;42.700;23.360;2023-04-29T11:47:26;5.13;;;3.75;;
3095;SDS011;1558;42.700;23.360;2023-04-29T11:50:02;5.10;;;4.03;;
3095;SDS011;1558;42.700;23.360;2023-04-29T11:52:33;4.43;;;3.90;;
3095;SDS011;1558;42.700;23.360;2023-04-29T11:55:02;5.32;;;4.07;;
3095;SDS011;1558;42.700;23.360;2023-04-29T11:57:31;12.93;;;5.78;;
3095;SDS011;1558;42.700;23.360;2023-04-29T11:59:59;6.85;;;3.50;;
3095;SDS011;1558;42.700;23.360;2023-04-29T12:02:28;3.85;;;2.97;;
3095;SDS011;1558;42.700;23.360;2023-04-29T12:04:57;7.93;;;2.97;;
3095;SDS011;1558;42.700;23.360;2023-04-29T12:07:27;5.93;;;2.97;;
3095;SDS011;1558;42.700;23.360;2023-04-29T12:09:57;4.10;;;3.20;;
3095;SDS011;1558;42.700;23.360;2023-04-29T12:12:25;5.70;;;3.00;;
3095;SDS011;1558;42.700;23.360;2023-04-29T12:14:54;4.13;;;2.73;;
3095;SDS011;1558;42.700;23.360;2023-04-29T12:17:22;6.30;;;3.03;;
3095;SDS011;1558;42.700;23.360;2023-04-29T12:19:51;6.27;;;4.17;;
3095;SDS011;1558;42.700;23.360;2023-04-29T12:22:19;5.00;;;3.43;;
3095;SDS011;1558;42.700;23.360;2023-04-29T12:24:47;4.23;;;3.17;;
3095;SDS011;1558;42.700;23.360;2023-04-29T12:27:20;3.27;;;2.97;;
3095;SDS011;1558;42.700;23.360;2023-04-29T12:29:50;5.03;;;3.80;;
3095;SDS011;1558;42.700;23.360;2023-04-29T12:32:20;5.03;;;2.80;;
3095;SDS011;1558;42.700;23.360;2023-04-29T12:34:49;4.10;;;2.93;;
3095;SDS011;1558;42.700;23.360;2023-04-29T12:37:20;5.70;;;3.33;;
3095;SDS011;1558;42.700;23.360;2023-04-29T12:39:48;7.27;;;3.37;;
3095;SDS011;1558;42.700;23.360;2023-04-29T12:42:17;3.93;;;3.50;;
3095;SDS011;1558;42.700;23.360;2023-04-29T12:44:46;5.03;;;3.27;;
3095;SDS011;1558;42.700;23.360;2023-04-29T12:47:15;4.78;;;3.33;;
3095;SDS011;1558;42.700;23.360;2023-04-29T12:49:44;3.73;;;2.80;;
3095;SDS011;1558;42.700;23.360;2023-04-29T12:52:13;4.07;;;2.80;;
3095;SDS011;1558;42.700;23.360;2023-04-29T12:54:41;3.92;;;2.80;;
3095;SDS011;1558;42.700;23.360;2023-04-29T12:57:10;4.40;;;3.30;;
3095;SDS011;1558;42.700;23.360;2023-04-29T12:59:38;4.25;;;3.20;;
3095;SDS011;1558;42.700;23.360;2023-04-29T13:02:08;7.68;;;2.85;;
3095;SDS011;1558;42.700;23.360;2023-04-29T13:04:37;3.35;;;2.78;;
3095;SDS011;1558;42.700;23.360;2023-04-29T13:07:06;2.80;;;2.53;;
3095;SDS011;1558;42.700;23.360;2023-04-29T13:09:34;3.47;;;3.17;;
3095;SDS011;1558;42.700;23.360;2023-04-29T13:12:04;4.20;;;3.70;;
3095;SDS011;1558;42.700;23.360;2023-04-29T13:14:35;4.68;;;3.83;;
3095;SDS011;1558;42.700;23.360;2023-04-29T13:17:03;3.80;;;2.65;;
3095;SDS011;1558;42.700;23.360;2023-04-29T13:19:33;4.93;;;2.90;;
3095;SDS011;1558;42.700;23.360;2023-04-29T13:22:16;5.70;;;4.13;;
3095;SDS011;1558;42.700;23.360;2023-04-29T13:24:45;5.72;;;5.00;;
3095;SDS011;1558;42.700;23.360;2023-04-29T13:27:13;4.88;;;2.70;;
3095;SDS011;1558;42.700;23.360;2023-04-29T13:29:41;6.82;;;3.28;;
3095;SDS011;1558;42.700;23.360;2023-04-29T13:32:09;2.60;;;2.22;;
3095;SDS011;1558;42.700;23.360;2023-04-29T13:34:39;2.85;;;2.40;;
3095;SDS011;1558;42.700;23.360;2023-04-29T13:37:08;4.65;;;3.08;;
3095;SDS011;1558;42.700;23.360;2023-04-29T13:39:37;6.20;;;5.13;;
3095;SDS011;1558;42.700;23.360;2023-04-29T13:42:05;5.70;;;4.45;;
3095;SDS011;1558;42.700;23.360;2023-04-29T13:44:34;3.00;;;2.80;;
3095;SDS011;1558;42.700;23.360;2023-04-29T13:47:22;3.58;;;3.20;;
3095;SDS011;1558;42.700;23.360;2023-04-29T13:49:56;9.35;;;8.35;;
3095;SDS011;1558;42.700;23.360;2023-04-29T13:52:44;4.38;;;3.10;;
3095;SDS011;1558;42.700;23.360;2023-04-29T13:55:15;6.65;;;3.05;;
3095;SDS011;1558;42.700;23.360;2023-04-29T13:57:46;5.75;;;2.80;;
3095;SDS011;1558;42.700;23.360;2023-04-29T14:00:34;3.63;;;3.13;;
3095;SDS011;1558;42.700;23.360;2023-04-29T14:03:24;3.72;;;2.95;;
3095;SDS011;1558;42.700;23.360;2023-04-29T14:05:54;3.80;;;2.78;;
3095;SDS011;1558;42.700;23.360;2023-04-29T14:08:22;3.47;;;3.10;;
3095;SDS011;1558;42.700;23.360;2023-04-29T14:10:50;8.13;;;7.27;;
3095;SDS011;1558;42.700;23.360;2023-04-29T14:13:18;4.37;;;3.97;;
3095;SDS011;1558;42.700;23.360;2023-04-29T14:15:47;5.70;;;5.20;;
3095;SDS011;1558;42.700;23.360;2023-04-29T14:18:15;2.80;;;2.43;;
3095;SDS011;1558;42.700;23.360;2023-04-29T14:20:50;4.37;;;3.53;;
3095;SDS011;1558;42.700;23.360;2023-04-29T14:23:20;4.93;;;2.80;;
3095;SDS011;1558;42.700;23.360;2023-04-29T14:25:48;5.83;;;3.17;;
3095;SDS011;1558;42.700;23.360;2023-04-29T14:28:19;6.50;;;4.43;;
3095;SDS011;1558;42.700;23.360;2023-04-29T14:30:48;3.30;;;3.10;;
3095;SDS011;1558;42.700;23.360;2023-04-29T14:33:16;2.88;;;2.40;;
3095;SDS011;1558;42.700;23.360;2023-04-29T14:35:44;4.60;;;4.20;;
3095;SDS011;1558;42.700;23.360;2023-04-29T14:38:12;4.33;;;3.93;;
3095;SDS011;1558;42.700;23.360;2023-04-29T14:40:42;4.38;;;3.97;;
3095;SDS011;1558;42.700;23.360;2023-04-29T14:43:10;6.35;;;3.50;;
3095;SDS011;1558;42.700;23.360;2023-04-29T14:45:38;3.47;;;3.17;;
3095;SDS011;1558;42.700;23.360;2023-04-29T14:48:06;4.45;;;3.65;;
3095;SDS011;1558;42.700;23.360;2023-04-29T14:50:35;3.10;;;2.80;;
3095;SDS011;1558;42.700;23.360;2023-04-29T14:53:03;4.00;;;2.92;;
3095;SDS011;1558;42.700;23.360;2023-04-29T14:55:32;4.00;;;3.40;;
3095;SDS011;1558;42.700;23.360;2023-04-29T14:58:02;4.25;;;3.20;;
3095;SDS011;1558;42.700;23.360;2023-04-29T15:00:30;6.82;;;5.95;;
3095;SDS011;1558;42.700;23.360;2023-04-29T15:02:58;9.73;;;8.85;;
3095;SDS011;1558;42.700;23.360;2023-04-29T15:05:29;3.92;;;3.30;;
3095;SDS011;1558;42.700;23.360;2023-04-29T15:07:58;5.38;;;2.92;;
3095;SDS011;1558;42.700;23.360;2023-04-29T15:10:27;3.33;;;3.03;;